createdAt,value
2022-07-29T00:00:04.172Z,21.52
2022-07-29T00:01:04.101Z,21.48
2022-07-29T00:02:04.070Z,21.40
2022-07-29T00:03:04.052Z,21.35
2022-07-29T00:04:04.035Z,21.39
2022-07-29T00:05:03.928Z,21.32
2022-07-29T00:06:03.858Z,21.39
2022-07-29T00:07:03.804Z,21.37
2022-07-29T00:08:03.754Z,21.37
2022-07-29T00:09:03.719Z,21.39
2022-07-29T00:10:03.702Z,21.32
2022-07-29T00:11:03.681Z,21.35
2022-07-29T00:12:03.575Z,21.37
2022-07-29T00:13:03.532Z,21.37
2022-07-29T00:14:03.482Z,21.30
2022-07-29T00:15:03.411Z,21.35
2022-07-29T00:16:04.392Z,21.36
2022-07-29T00:17:03.352Z,21.27
2022-07-29T00:18:03.281Z,21.29
2022-07-29T00:19:03.288Z,21.29
2022-07-29T00:20:03.236Z,21.29
2022-07-29T00:21:03.163Z,21.30
2022-07-29T00:22:03.110Z,21.27
2022-07-29T00:23:03.037Z,21.27
2022-07-29T00:24:03.013Z,21.21
2022-07-29T00:25:02.962Z,21.17
2022-07-29T00:26:02.912Z,21.17
2022-07-29T00:27:02.931Z,21.12
2022-07-29T00:28:02.883Z,21.20
2022-07-29T00:29:32.406Z,21.14
2022-07-29T00:30:02.722Z,21.12
2022-07-29T00:31:02.753Z,21.03
2022-07-29T00:32:02.697Z,21.00
2022-07-29T00:33:03.570Z,20.97
2022-07-29T00:34:02.521Z,20.95
2022-07-29T00:35:02.459Z,20.88
2022-07-29T00:36:02.524Z,20.92
2022-07-29T00:37:02.396Z,20.95
2022-07-29T00:38:02.341Z,20.88
2022-07-29T00:39:02.290Z,20.90
2022-07-29T00:40:02.270Z,20.96
2022-07-29T00:41:02.185Z,20.90
2022-07-29T00:42:02.188Z,21.02
2022-07-29T00:43:02.122Z,21.02
2022-07-29T00:44:02.099Z,20.97
2022-07-29T00:45:02.067Z,20.95
2022-07-29T00:46:01.926Z,20.95
2022-07-29T00:47:01.931Z,20.88
2022-07-29T00:48:01.909Z,20.85
2022-07-29T00:49:01.875Z,20.88
2022-07-29T00:50:01.749Z,20.87
2022-07-29T00:51:01.738Z,20.74
2022-07-29T00:52:01.683Z,20.72
2022-07-29T00:53:01.636Z,20.75
2022-07-29T00:54:01.565Z,20.69
2022-07-29T00:55:06.331Z,20.59
2022-07-29T00:56:01.483Z,20.59
2022-07-29T00:57:01.427Z,20.62
2022-07-29T00:58:01.422Z,20.67
2022-07-29T00:59:01.329Z,20.52
2022-07-29T01:00:01.303Z,20.48
2022-07-29T01:01:01.263Z,20.44
2022-07-29T01:02:01.194Z,20.41
2022-07-29T01:03:01.161Z,20.40
2022-07-29T01:04:01.118Z,20.50
2022-07-29T01:05:10.322Z,20.40
2022-07-29T01:06:00.948Z,20.36
2022-07-29T01:07:00.885Z,20.36
2022-07-29T01:08:00.936Z,20.39
2022-07-29T01:09:00.785Z,20.28
2022-07-29T01:10:00.740Z,20.36
2022-07-29T01:11:00.699Z,20.40
2022-07-29T01:12:00.643Z,20.32
2022-07-29T01:13:00.597Z,20.25
2022-07-29T01:14:00.565Z,20.36
2022-07-29T01:15:00.513Z,20.31
2022-07-29T01:16:00.512Z,20.31
2022-07-29T01:17:00.401Z,20.22
2022-07-29T01:18:00.355Z,20.29
2022-07-29T01:19:00.319Z,20.25
2022-07-29T01:20:00.278Z,20.25
2022-07-29T01:21:00.211Z,20.26
2022-07-29T01:22:00.177Z,20.26
2022-07-29T01:23:00.112Z,20.29
2022-07-29T01:24:00.093Z,20.24
2022-07-29T01:25:00.015Z,20.22
2022-07-29T01:25:59.967Z,20.21
2022-07-29T01:26:59.933Z,20.06
2022-07-29T01:27:59.871Z,20.16
2022-07-29T01:28:59.837Z,20.18
2022-07-29T01:29:59.773Z,20.10
2022-07-29T01:30:59.764Z,20.10
2022-07-29T01:32:00.839Z,20.10
2022-07-29T01:32:59.643Z,20.11
2022-07-29T01:33:59.653Z,20.09
2022-07-29T01:34:59.529Z,20.02
2022-07-29T01:35:59.484Z,20.03
2022-07-29T01:36:59.439Z,20.04
2022-07-29T01:37:59.388Z,20.03
2022-07-29T01:38:59.339Z,20.03
2022-07-29T01:39:59.307Z,19.95
2022-07-29T01:40:59.243Z,20.04
2022-07-29T01:41:59.196Z,20.04
2022-07-29T01:42:59.145Z,19.99
2022-07-29T01:43:59.114Z,20.04
2022-07-29T01:44:59.142Z,20.03
2022-07-29T01:45:58.998Z,20.10
2022-07-29T01:46:59.033Z,20.02
2022-07-29T01:47:58.926Z,20.06
2022-07-29T01:48:59.807Z,19.99
2022-07-29T01:49:58.824Z,19.91
2022-07-29T01:50:58.759Z,19.96
2022-07-29T01:51:58.777Z,19.99
2022-07-29T01:52:58.684Z,20.00
2022-07-29T01:53:58.616Z,19.95
2022-07-29T01:54:58.565Z,19.96
2022-07-29T01:55:59.028Z,19.99
2022-07-29T01:56:58.464Z,19.92
2022-07-29T01:57:58.431Z,19.92
2022-07-29T01:58:58.375Z,19.95
2022-07-29T01:59:58.337Z,19.96
2022-07-29T02:00:58.273Z,19.92
2022-07-29T02:01:58.286Z,19.94
2022-07-29T02:02:58.227Z,19.88
2022-07-29T02:03:58.161Z,19.91
2022-07-29T02:04:58.108Z,19.92
2022-07-29T02:05:58.046Z,19.77
2022-07-29T02:06:57.985Z,19.76
2022-07-29T02:07:57.934Z,19.73
2022-07-29T02:08:57.907Z,19.73
2022-07-29T02:09:57.859Z,19.74
2022-07-29T02:10:57.788Z,19.73
2022-07-29T02:11:57.738Z,19.74
2022-07-29T02:12:57.699Z,19.73
2022-07-29T02:13:57.643Z,19.63
2022-07-29T02:14:57.598Z,19.73
2022-07-29T02:15:57.672Z,19.66
2022-07-29T02:16:57.496Z,19.71
2022-07-29T02:17:57.449Z,19.55
2022-07-29T02:18:57.403Z,19.59
2022-07-29T02:19:57.367Z,19.63
2022-07-29T02:20:57.302Z,19.58
2022-07-29T02:21:57.261Z,19.63
2022-07-29T02:22:57.208Z,19.54
2022-07-29T02:23:57.157Z,19.52
2022-07-29T02:24:57.111Z,19.48
2022-07-29T02:25:57.075Z,19.54
2022-07-29T02:26:57.009Z,19.51
2022-07-29T02:27:56.980Z,19.51
2022-07-29T02:28:56.920Z,19.49
2022-07-29T02:29:56.871Z,19.44
2022-07-29T02:30:56.912Z,19.40
2022-07-29T02:31:56.767Z,19.47
2022-07-29T02:32:56.733Z,19.52
2022-07-29T02:33:56.670Z,19.45
2022-07-29T02:34:56.626Z,19.41
2022-07-29T02:35:56.574Z,19.49
2022-07-29T02:36:56.535Z,19.47
2022-07-29T02:37:56.478Z,19.39
2022-07-29T02:38:56.441Z,19.45
2022-07-29T02:39:56.377Z,19.36
2022-07-29T02:40:56.328Z,19.45
2022-07-29T02:41:56.282Z,19.36
2022-07-29T02:42:56.232Z,19.40
2022-07-29T02:43:56.193Z,19.36
2022-07-29T02:44:56.134Z,19.39
2022-07-29T02:45:56.099Z,19.36
2022-07-29T02:46:56.110Z,19.31
2022-07-29T02:47:56.012Z,19.26
2022-07-29T02:48:55.994Z,19.21
2022-07-29T02:49:55.887Z,19.22
2022-07-29T02:50:55.853Z,19.21
2022-07-29T02:51:55.796Z,19.21
2022-07-29T02:52:56.549Z,19.12
2022-07-29T02:53:55.698Z,19.09
2022-07-29T02:54:55.644Z,19.14
2022-07-29T02:55:55.615Z,19.08
2022-07-29T02:56:55.551Z,19.08
2022-07-29T02:57:55.772Z,19.02
2022-07-29T02:58:55.446Z,18.99
2022-07-29T02:59:55.401Z,18.96
2022-07-29T03:00:55.349Z,18.89
2022-07-29T03:01:55.432Z,18.89
2022-07-29T03:02:55.252Z,18.90
2022-07-29T03:03:55.225Z,18.88
2022-07-29T03:04:55.203Z,18.83
2022-07-29T03:05:55.112Z,18.89
2022-07-29T03:06:55.056Z,18.73
2022-07-29T03:07:55.012Z,18.73
2022-07-29T03:08:54.988Z,18.77
2022-07-29T03:09:54.911Z,18.75
2022-07-29T03:10:54.877Z,18.70
2022-07-29T03:11:54.817Z,18.68
2022-07-29T03:12:54.766Z,18.62
2022-07-29T03:13:54.739Z,18.60
2022-07-29T03:14:54.664Z,18.62
2022-07-29T03:15:54.721Z,18.63
2022-07-29T03:16:54.571Z,18.60
2022-07-29T03:17:54.528Z,18.55
2022-07-29T03:18:54.468Z,18.50
2022-07-29T03:19:54.424Z,18.45
2022-07-29T03:20:54.374Z,18.52
2022-07-29T03:21:54.332Z,18.43
2022-07-29T03:22:54.285Z,18.55
2022-07-29T03:23:54.234Z,18.43
2022-07-29T03:24:54.175Z,18.44
2022-07-29T03:25:54.123Z,18.45
2022-07-29T03:26:54.086Z,18.49
2022-07-29T03:27:54.033Z,18.43
2022-07-29T03:28:53.977Z,18.45
2022-07-29T03:29:53.925Z,18.41
2022-07-29T03:30:53.918Z,18.40
2022-07-29T03:31:53.835Z,18.35
2022-07-29T03:32:53.781Z,18.40
2022-07-29T03:33:53.752Z,18.34
2022-07-29T03:34:53.689Z,18.34
2022-07-29T03:35:53.630Z,18.28
2022-07-29T03:36:53.595Z,18.29
2022-07-29T03:37:53.531Z,18.35
2022-07-29T03:38:53.497Z,18.33
2022-07-29T03:39:53.449Z,18.33
2022-07-29T03:40:53.382Z,18.33
2022-07-29T03:41:53.342Z,18.23
2022-07-29T03:42:53.301Z,18.29
2022-07-29T03:43:53.238Z,18.19
2022-07-29T03:44:53.183Z,18.05
2022-07-29T03:45:53.250Z,18.07
2022-07-29T03:46:53.105Z,18.08
2022-07-29T03:47:58.436Z,17.94
2022-07-29T03:48:52.986Z,18.04
2022-07-29T03:49:52.973Z,18.04
2022-07-29T03:50:52.889Z,17.98
2022-07-29T03:51:52.842Z,17.95
2022-07-29T03:52:52.790Z,17.92
2022-07-29T03:53:52.740Z,17.87
2022-07-29T03:54:52.710Z,17.87
2022-07-29T03:55:52.654Z,17.90
2022-07-29T03:56:52.593Z,17.85
2022-07-29T03:57:52.563Z,17.89
2022-07-29T03:58:52.492Z,17.82
2022-07-29T03:59:52.447Z,17.80
2022-07-29T04:00:52.395Z,17.80
2022-07-29T04:01:52.386Z,17.78
2022-07-29T04:02:52.299Z,17.90
2022-07-29T04:03:52.424Z,17.87
2022-07-29T04:04:52.377Z,17.85
2022-07-29T04:05:52.145Z,17.89
2022-07-29T04:06:52.096Z,17.86
2022-07-29T04:07:52.052Z,17.86
2022-07-29T04:08:52.015Z,17.87
2022-07-29T04:09:51.946Z,17.90
2022-07-29T04:10:51.896Z,17.89
2022-07-29T04:12:02.221Z,17.92
2022-07-29T04:12:51.807Z,17.94
2022-07-29T04:13:51.761Z,17.98
2022-07-29T04:14:51.697Z,17.94
2022-07-29T04:15:51.709Z,17.94
2022-07-29T04:16:51.627Z,17.83
2022-07-29T04:17:51.553Z,17.78
2022-07-29T04:18:51.515Z,17.68
2022-07-29T04:19:51.452Z,17.65
2022-07-29T04:20:51.403Z,17.70
2022-07-29T04:21:51.351Z,17.72
2022-07-29T04:22:51.302Z,17.74
2022-07-29T04:23:53.942Z,17.74
2022-07-29T04:24:51.204Z,17.78
2022-07-29T04:25:51.152Z,17.86
2022-07-29T04:26:51.102Z,17.85
2022-07-29T04:27:51.068Z,17.89
2022-07-29T04:28:51.003Z,17.85
2022-07-29T04:29:56.915Z,17.83
2022-07-29T04:30:50.960Z,17.98
2022-07-29T04:31:50.883Z,18.04
2022-07-29T04:32:50.871Z,17.94
2022-07-29T04:33:50.752Z,18.07
2022-07-29T04:34:50.707Z,18.10
2022-07-29T04:35:52.342Z,18.05
2022-07-29T04:36:50.619Z,18.03
2022-07-29T04:37:50.559Z,18.04
2022-07-29T04:38:50.617Z,18.18
2022-07-29T04:39:50.484Z,18.16
2022-07-29T04:40:50.407Z,18.08
2022-07-29T04:41:50.369Z,18.20
2022-07-29T04:42:50.305Z,18.10
2022-07-29T04:43:50.266Z,18.20
2022-07-29T04:44:50.230Z,18.20
2022-07-29T04:45:50.336Z,18.10
2022-07-29T04:46:50.205Z,18.08
2022-07-29T04:47:50.065Z,18.05
2022-07-29T04:48:50.069Z,17.97
2022-07-29T04:49:49.961Z,18.03
2022-07-29T04:50:49.921Z,18.07
2022-07-29T04:51:49.861Z,18.01
2022-07-29T04:52:49.806Z,17.95
2022-07-29T04:53:49.759Z,17.92
2022-07-29T04:54:49.721Z,17.86
2022-07-29T04:55:49.673Z,17.90
2022-07-29T04:56:49.609Z,17.89
2022-07-29T04:57:49.576Z,17.87
2022-07-29T04:58:49.510Z,17.90
2022-07-29T04:59:49.474Z,17.85
2022-07-29T05:00:49.417Z,17.90
2022-07-29T05:01:49.405Z,17.95
2022-07-29T05:02:49.407Z,18.01
2022-07-29T05:03:49.261Z,18.01
2022-07-29T05:04:49.235Z,18.11
2022-07-29T05:05:49.172Z,18.05
2022-07-29T05:06:49.112Z,18.22
2022-07-29T05:07:49.073Z,18.11
2022-07-29T05:08:49.035Z,18.18
2022-07-29T05:09:48.970Z,18.31
2022-07-29T05:10:48.912Z,18.37
2022-07-29T05:11:48.865Z,18.37
2022-07-29T05:12:48.822Z,18.43
2022-07-29T05:13:48.767Z,18.40
2022-07-29T05:14:48.713Z,18.45
2022-07-29T05:15:48.740Z,18.47
2022-07-29T05:16:48.613Z,18.49
2022-07-29T05:17:48.564Z,18.53
2022-07-29T05:18:48.513Z,18.47
2022-07-29T05:19:48.469Z,18.45
2022-07-29T05:20:48.445Z,18.44
2022-07-29T05:21:48.365Z,18.49
2022-07-29T05:22:48.319Z,18.44
2022-07-29T05:23:48.288Z,18.47
2022-07-29T05:24:48.213Z,18.47
2022-07-29T05:25:48.182Z,18.47
2022-07-29T05:26:48.134Z,18.50
2022-07-29T05:27:48.065Z,18.47
2022-07-29T05:28:48.017Z,18.58
2022-07-29T05:29:47.972Z,18.58
2022-07-29T05:30:48.024Z,18.60
2022-07-29T05:31:47.870Z,18.75
2022-07-29T05:32:47.824Z,18.68
2022-07-29T05:33:47.768Z,18.81
2022-07-29T05:34:51.291Z,18.75
2022-07-29T05:35:47.672Z,18.83
2022-07-29T05:36:47.637Z,18.88
2022-07-29T05:37:47.570Z,18.83
2022-07-29T05:38:47.524Z,18.84
2022-07-29T05:39:50.531Z,18.80
2022-07-29T05:40:47.443Z,18.90
2022-07-29T05:41:51.734Z,18.93
2022-07-29T05:42:47.338Z,18.88
2022-07-29T05:43:47.275Z,18.88
2022-07-29T05:44:47.222Z,18.98
2022-07-29T05:45:49.364Z,19.00
2022-07-29T05:46:47.200Z,19.00
2022-07-29T05:47:47.078Z,18.99
2022-07-29T05:48:47.113Z,18.99
2022-07-29T05:49:46.998Z,19.15
2022-07-29T05:50:46.931Z,19.14
2022-07-29T05:51:46.910Z,19.12
2022-07-29T05:52:46.833Z,19.21
2022-07-29T05:53:46.782Z,19.22
2022-07-29T05:54:46.744Z,19.29
2022-07-29T05:55:46.692Z,19.26
2022-07-29T05:56:46.633Z,19.37
2022-07-29T05:57:46.597Z,19.31
2022-07-29T05:58:46.533Z,19.51
2022-07-29T05:59:46.482Z,19.49
2022-07-29T06:00:46.432Z,19.58
2022-07-29T06:01:46.485Z,19.54
2022-07-29T06:02:46.347Z,19.64
2022-07-29T06:03:46.287Z,19.69
2022-07-29T06:04:46.357Z,19.73
2022-07-29T06:05:46.187Z,19.70
2022-07-29T06:06:46.145Z,19.82
2022-07-29T06:07:50.014Z,19.85
2022-07-29T06:08:46.040Z,19.85
2022-07-29T06:09:46.007Z,19.91
2022-07-29T06:10:45.959Z,19.96
2022-07-29T06:11:45.895Z,19.91
2022-07-29T06:12:45.846Z,19.96
2022-07-29T06:13:45.793Z,19.91
2022-07-29T06:14:45.906Z,19.89
2022-07-29T06:15:45.796Z,19.94
2022-07-29T06:16:45.726Z,19.96
2022-07-29T06:18:00.640Z,19.92
2022-07-29T06:18:45.550Z,19.88
2022-07-29T06:19:45.503Z,19.96
2022-07-29T06:20:45.454Z,19.95
2022-07-29T06:21:45.424Z,19.91
2022-07-29T06:22:45.355Z,19.89
2022-07-29T06:23:45.322Z,19.95
2022-07-29T06:24:45.253Z,19.92
2022-07-29T06:25:45.220Z,19.85
2022-07-29T06:26:45.177Z,19.92
2022-07-29T06:27:45.113Z,19.86
2022-07-29T06:28:45.061Z,19.99
2022-07-29T06:29:45.010Z,19.85
2022-07-29T06:30:45.034Z,19.94
2022-07-29T06:31:44.928Z,19.86
2022-07-29T06:32:44.885Z,19.86
2022-07-29T06:33:44.817Z,19.86
2022-07-29T06:34:48.863Z,19.91
2022-07-29T06:35:44.743Z,19.81
2022-07-29T06:36:44.694Z,19.79
2022-07-29T06:37:44.641Z,19.85
2022-07-29T06:38:49.502Z,19.77
2022-07-29T06:39:44.530Z,19.82
2022-07-29T06:40:44.471Z,19.79
2022-07-29T06:41:44.427Z,19.77
2022-07-29T06:42:44.407Z,19.88
2022-07-29T06:43:52.065Z,19.81
2022-07-29T06:44:44.313Z,19.79
2022-07-29T06:45:44.261Z,19.77
2022-07-29T06:46:44.178Z,19.79
2022-07-29T06:47:44.134Z,19.77
2022-07-29T06:48:44.187Z,19.81
2022-07-29T06:49:44.034Z,19.77
2022-07-29T06:50:43.983Z,19.71
2022-07-29T06:51:43.938Z,19.79
2022-07-29T06:52:43.900Z,19.70
2022-07-29T06:54:00.348Z,19.71
2022-07-29T06:54:43.790Z,19.71
2022-07-29T06:55:43.740Z,19.74
2022-07-29T06:56:43.690Z,19.84
2022-07-29T06:57:43.659Z,19.76
2022-07-29T06:58:43.598Z,19.85
2022-07-29T06:59:43.545Z,19.89
2022-07-29T07:00:43.511Z,19.86
2022-07-29T07:01:43.556Z,19.95
2022-07-29T07:02:43.502Z,19.99
2022-07-29T07:03:43.349Z,20.10
2022-07-29T07:04:43.301Z,20.10
2022-07-29T07:05:43.253Z,20.24
2022-07-29T07:06:43.226Z,20.19
2022-07-29T07:07:43.154Z,20.32
2022-07-29T07:08:43.119Z,20.32
2022-07-29T07:09:43.060Z,20.36
2022-07-29T07:10:43.007Z,20.50
2022-07-29T07:11:42.960Z,20.40
2022-07-29T07:12:42.911Z,20.51
2022-07-29T07:13:42.873Z,20.40
2022-07-29T07:14:42.832Z,20.55
2022-07-29T07:15:42.834Z,20.65
2022-07-29T07:16:42.790Z,20.58
2022-07-29T07:17:42.666Z,20.63
2022-07-29T07:18:42.634Z,20.69
2022-07-29T07:19:42.626Z,20.69
2022-07-29T07:20:42.528Z,20.70
2022-07-29T07:21:42.485Z,20.87
2022-07-29T07:22:42.443Z,20.88
2022-07-29T07:23:42.390Z,21.00
2022-07-29T07:24:42.327Z,21.05
2022-07-29T07:25:42.303Z,21.14
2022-07-29T07:26:42.230Z,21.15
2022-07-29T07:28:54.881Z,21.18
2022-07-29T07:29:54.812Z,21.12
2022-07-29T07:30:54.780Z,21.12
2022-07-29T07:31:58.925Z,21.09
2022-07-29T07:32:54.666Z,21.11
2022-07-29T07:33:54.784Z,21.11
2022-07-29T07:34:54.571Z,21.18
2022-07-29T07:35:54.538Z,21.25
2022-07-29T07:36:54.476Z,21.29
2022-07-29T07:37:54.426Z,21.37
2022-07-29T07:38:54.378Z,21.36
2022-07-29T07:39:54.338Z,21.50
2022-07-29T07:40:54.287Z,21.37
2022-07-29T07:41:54.254Z,21.43
2022-07-29T07:42:54.187Z,21.54
2022-07-29T07:43:54.138Z,21.57
2022-07-29T07:45:12.640Z,21.45
2022-07-29T07:45:54.144Z,21.36
2022-07-29T07:46:54.866Z,21.30
2022-07-29T07:47:53.947Z,21.35
2022-07-29T07:48:54.020Z,21.35
2022-07-29T07:49:53.854Z,21.22
2022-07-29T07:50:53.806Z,21.09
2022-07-29T07:51:53.771Z,20.99
2022-07-29T07:52:53.725Z,20.90
2022-07-29T07:53:53.664Z,20.72
2022-07-29T07:54:53.615Z,20.58
2022-07-29T07:56:10.034Z,20.51
2022-07-29T07:56:53.556Z,20.51
2022-07-29T07:57:53.486Z,20.40
2022-07-29T07:58:53.419Z,20.29
2022-07-29T07:59:53.380Z,20.31
2022-07-29T08:00:53.345Z,20.31
2022-07-29T08:01:55.550Z,20.22
2022-07-29T08:02:53.332Z,20.13
2022-07-29T08:03:53.198Z,20.19
2022-07-29T08:04:53.132Z,20.19
2022-07-29T08:05:53.104Z,20.13
2022-07-29T08:06:53.036Z,20.06
2022-07-29T08:07:52.985Z,19.96
2022-07-29T08:08:56.236Z,19.88
2022-07-29T08:09:52.891Z,19.77
2022-07-29T08:10:52.857Z,19.88
2022-07-29T08:11:52.796Z,19.77
2022-07-29T08:12:52.747Z,19.77
2022-07-29T08:13:52.717Z,19.71
2022-07-29T08:14:52.654Z,19.67
2022-07-29T08:15:52.602Z,19.63
2022-07-29T08:16:52.693Z,19.56
2022-07-29T08:17:52.502Z,19.36
2022-07-29T08:18:52.454Z,19.24
2022-07-29T08:19:52.408Z,19.09
2022-07-29T08:20:52.357Z,18.88
2022-07-29T08:21:52.684Z,18.84
2022-07-29T08:22:52.262Z,18.88
2022-07-29T08:23:58.456Z,18.81
2022-07-29T08:24:52.161Z,18.73
2022-07-29T08:25:52.115Z,18.74
2022-07-29T08:26:52.081Z,18.75
2022-07-29T08:27:52.014Z,18.60
2022-07-29T08:28:51.996Z,18.63
2022-07-29T08:29:51.920Z,18.50
2022-07-29T08:30:51.873Z,18.55
2022-07-29T08:31:52.173Z,18.47
2022-07-29T08:32:54.128Z,18.56
2022-07-29T08:33:51.723Z,18.52
2022-07-29T08:34:51.673Z,18.56
2022-07-29T08:35:51.626Z,18.62
2022-07-29T08:36:51.614Z,18.66
2022-07-29T08:37:51.533Z,18.65
2022-07-29T08:38:51.492Z,18.65
2022-07-29T08:39:51.429Z,18.56
2022-07-29T08:40:51.378Z,18.50
2022-07-29T08:41:57.210Z,18.38
2022-07-29T08:42:51.295Z,18.50
2022-07-29T08:43:51.251Z,18.56
2022-07-29T08:44:51.182Z,18.70
2022-07-29T08:45:51.248Z,18.86
2022-07-29T08:46:51.110Z,18.92
2022-07-29T08:47:51.041Z,18.92
2022-07-29T08:48:51.019Z,18.86
2022-07-29T08:49:50.934Z,18.80
2022-07-29T08:50:50.888Z,18.86
2022-07-29T08:51:50.840Z,19.00
2022-07-29T08:52:50.788Z,19.19
2022-07-29T08:53:50.754Z,19.40
2022-07-29T08:54:50.691Z,19.47
2022-07-29T08:55:50.646Z,19.49
2022-07-29T08:56:50.597Z,19.62
2022-07-29T08:57:54.257Z,19.52
2022-07-29T08:58:52.258Z,19.70
2022-07-29T08:59:50.449Z,19.74
2022-07-29T09:00:50.426Z,19.86
2022-07-29T09:01:50.389Z,19.82
2022-07-29T09:02:50.296Z,19.74
2022-07-29T09:03:50.379Z,19.69
2022-07-29T09:04:50.213Z,19.73
2022-07-29T09:05:50.172Z,19.74
2022-07-29T09:06:50.102Z,19.69
2022-07-29T09:07:50.074Z,19.66
2022-07-29T09:08:50.035Z,19.59
2022-07-29T09:09:49.963Z,19.37
2022-07-29T09:10:49.936Z,19.33
2022-07-29T09:11:49.873Z,19.27
2022-07-29T09:12:49.818Z,19.49
2022-07-29T09:13:49.778Z,19.62
2022-07-29T09:14:49.717Z,19.79
2022-07-29T09:15:49.663Z,20.07
2022-07-29T09:16:53.842Z,20.31
2022-07-29T09:17:49.579Z,20.59
2022-07-29T09:18:49.535Z,21.15
2022-07-29T09:19:49.471Z,21.45
2022-07-29T09:20:49.434Z,21.60
2022-07-29T09:21:49.375Z,21.77
2022-07-29T09:22:49.324Z,21.95
2022-07-29T09:23:49.292Z,22.11
2022-07-29T09:24:49.245Z,22.13
2022-07-29T09:25:49.181Z,22.23
2022-07-29T09:26:49.133Z,22.36
2022-07-29T09:27:49.085Z,22.32
2022-07-29T09:28:49.045Z,22.07
2022-07-29T09:29:49.022Z,22.11
2022-07-29T09:30:48.959Z,22.22
2022-07-29T09:31:48.979Z,22.28
2022-07-29T09:32:48.860Z,22.50
2022-07-29T09:33:48.797Z,22.57
2022-07-29T09:34:48.750Z,22.62
2022-07-29T09:35:56.415Z,22.96
2022-07-29T09:36:48.653Z,23.31
2022-07-29T09:37:48.611Z,23.62
2022-07-29T09:38:48.559Z,24.05
2022-07-29T09:39:48.512Z,24.29
2022-07-29T09:40:48.479Z,24.61
2022-07-29T09:41:48.420Z,24.86
2022-07-29T09:42:48.382Z,25.14
2022-07-29T09:43:48.341Z,25.36
2022-07-29T09:44:48.283Z,25.55
2022-07-29T09:45:48.239Z,25.62
2022-07-29T09:46:48.306Z,25.59
2022-07-29T09:47:48.156Z,25.78
2022-07-29T09:48:48.116Z,26.05
2022-07-29T09:49:48.046Z,26.26
2022-07-29T09:50:47.999Z,26.45
2022-07-29T09:51:47.972Z,26.47
2022-07-29T09:52:47.924Z,26.71
2022-07-29T09:53:47.865Z,27.02
2022-07-29T09:54:47.818Z,27.17
2022-07-29T09:55:47.772Z,27.33
2022-07-29T09:56:47.730Z,27.42
2022-07-29T09:57:47.698Z,27.44
2022-07-29T09:58:47.661Z,27.30
2022-07-29T09:59:50.127Z,27.36
2022-07-29T10:00:47.586Z,27.30
2022-07-29T10:01:47.514Z,27.25
2022-07-29T10:02:47.457Z,27.25
2022-07-29T10:03:47.459Z,27.29
2022-07-29T10:04:47.369Z,27.14
2022-07-29T10:05:47.339Z,27.30
2022-07-29T10:06:47.293Z,27.17
2022-07-29T10:07:50.594Z,27.21
2022-07-29T10:08:47.190Z,27.25
2022-07-29T10:09:47.144Z,27.20
2022-07-29T10:10:47.102Z,27.15
2022-07-29T10:11:49.360Z,27.17
2022-07-29T10:12:47.027Z,26.88
2022-07-29T10:13:46.968Z,26.83
2022-07-29T10:14:46.923Z,26.68
2022-07-29T10:15:47.034Z,26.70
2022-07-29T10:16:46.930Z,26.70
2022-07-29T10:17:46.790Z,26.60
2022-07-29T10:18:46.759Z,26.71
2022-07-29T10:19:46.700Z,26.73
2022-07-29T10:20:46.658Z,26.84
2022-07-29T10:21:46.616Z,27.10
2022-07-29T10:22:54.236Z,27.36
2022-07-29T10:23:47.444Z,27.64
2022-07-29T10:24:46.508Z,27.92
2022-07-29T10:25:46.809Z,28.15
2022-07-29T10:26:46.412Z,28.52
2022-07-29T10:27:46.350Z,28.84
2022-07-29T10:28:46.314Z,29.01
2022-07-29T10:29:46.291Z,29.16
2022-07-29T10:30:46.220Z,29.19
2022-07-29T10:31:46.228Z,29.14
2022-07-29T10:32:46.133Z,29.07
2022-07-29T10:33:46.090Z,28.98
2022-07-29T10:34:46.064Z,29.02
2022-07-29T10:35:46.007Z,28.91
2022-07-29T10:36:45.979Z,28.94
2022-07-29T10:37:46.166Z,29.05
2022-07-29T10:38:47.106Z,29.13
2022-07-29T10:39:49.625Z,29.02
2022-07-29T10:40:45.792Z,29.13
2022-07-29T10:41:45.746Z,29.02
2022-07-29T10:42:45.702Z,29.14
2022-07-29T10:43:45.671Z,29.27
2022-07-29T10:44:45.616Z,29.44
2022-07-29T10:45:45.573Z,29.34
2022-07-29T10:46:45.565Z,29.26
2022-07-29T10:47:45.491Z,29.19
2022-07-29T10:48:45.486Z,29.24
2022-07-29T10:49:45.402Z,29.14
2022-07-29T10:50:45.377Z,28.81
2022-07-29T10:51:45.315Z,28.45
2022-07-29T10:52:45.279Z,28.41
2022-07-29T10:53:45.248Z,28.81
2022-07-29T10:54:45.187Z,29.08
2022-07-29T10:55:45.147Z,29.04
2022-07-29T10:56:45.106Z,29.26
2022-07-29T10:57:53.490Z,29.34
2022-07-29T10:58:52.683Z,28.82
2022-07-29T10:59:44.978Z,28.01
2022-07-29T11:00:45.659Z,27.47
2022-07-29T11:02:02.736Z,27.30
2022-07-29T11:02:45.244Z,27.33
2022-07-29T11:03:49.192Z,27.15
2022-07-29T11:04:44.771Z,26.99
2022-07-29T11:05:44.726Z,27.02
2022-07-29T11:06:44.683Z,27.00
2022-07-29T11:07:45.932Z,27.17
2022-07-29T11:08:44.613Z,27.40
2022-07-29T11:09:44.555Z,27.96
2022-07-29T11:10:44.532Z,28.32
2022-07-29T11:11:51.334Z,28.45
2022-07-29T11:12:44.436Z,28.75
2022-07-29T11:13:44.389Z,28.85
2022-07-29T11:14:44.344Z,28.82
2022-07-29T11:15:44.318Z,28.97
2022-07-29T11:16:44.275Z,29.14
2022-07-29T11:17:47.110Z,29.22
2022-07-29T11:18:44.177Z,29.31
2022-07-29T11:19:49.299Z,29.34
2022-07-29T11:20:44.088Z,29.32
2022-07-29T11:22:47.297Z,29.45
2022-07-29T11:23:43.964Z,29.51
2022-07-29T11:24:50.090Z,29.73
2022-07-29T11:25:50.621Z,29.98
2022-07-29T11:26:43.842Z,30.23
2022-07-29T11:27:43.812Z,30.51
2022-07-29T11:28:43.754Z,30.65
2022-07-29T11:29:43.720Z,30.91
2022-07-29T11:30:43.673Z,30.35
2022-07-29T11:31:43.633Z,30.28
2022-07-29T11:32:44.713Z,30.09
2022-07-29T11:33:56.063Z,30.24
2022-07-29T11:34:43.506Z,30.62
2022-07-29T11:35:43.464Z,30.90
2022-07-29T11:36:43.422Z,31.22
2022-07-29T11:37:52.384Z,31.02
2022-07-29T11:38:43.341Z,30.80
2022-07-29T11:39:43.298Z,30.75
2022-07-29T11:40:43.259Z,30.81
2022-07-29T11:41:43.239Z,30.69
2022-07-29T11:42:44.511Z,30.47
2022-07-29T11:43:43.138Z,30.24
2022-07-29T11:44:43.094Z,30.15
2022-07-29T11:45:45.447Z,29.84
2022-07-29T11:46:43.018Z,29.63
2022-07-29T11:47:43.009Z,29.32
2022-07-29T11:48:42.970Z,29.44
2022-07-29T11:49:42.889Z,29.68
2022-07-29T11:50:44.409Z,29.90
2022-07-29T11:51:48.339Z,29.76
2022-07-29T11:52:49.554Z,29.53
2022-07-29T11:53:42.725Z,29.49
2022-07-29T11:54:58.342Z,29.54
2022-07-29T11:55:50.985Z,29.69
2022-07-29T11:56:42.605Z,29.94
2022-07-29T11:57:42.573Z,30.30
2022-07-29T11:58:42.521Z,30.81
2022-07-29T11:59:42.483Z,31.24
2022-07-29T12:00:42.457Z,31.74
2022-07-29T12:01:42.399Z,31.89
2022-07-29T12:02:42.768Z,32.03
2022-07-29T12:03:43.607Z,32.14
2022-07-29T12:04:42.277Z,32.01
2022-07-29T12:05:48.446Z,31.51
2022-07-29T12:06:42.197Z,30.65
2022-07-29T12:07:45.431Z,30.68
2022-07-29T12:08:42.128Z,30.30
2022-07-29T12:09:42.074Z,30.27
2022-07-29T12:10:42.044Z,30.43
2022-07-29T12:11:42.001Z,30.46
2022-07-29T12:12:41.955Z,30.63
2022-07-29T12:13:41.913Z,30.97
2022-07-29T12:14:41.870Z,31.22
2022-07-29T12:15:46.405Z,31.54
2022-07-29T12:16:41.824Z,31.92
2022-07-29T12:17:41.754Z,32.26
2022-07-29T12:18:41.708Z,32.67
2022-07-29T12:19:41.681Z,32.90
2022-07-29T12:20:41.642Z,32.93
2022-07-29T12:21:41.585Z,33.05
2022-07-29T12:22:41.550Z,33.19
2022-07-29T12:23:41.507Z,33.34
2022-07-29T12:24:41.466Z,33.49
2022-07-29T12:25:41.444Z,33.73
2022-07-29T12:26:41.406Z,33.79
2022-07-29T12:27:41.351Z,33.65
2022-07-29T12:28:41.334Z,33.05
2022-07-29T12:29:45.042Z,32.73
2022-07-29T12:30:41.601Z,32.55
2022-07-29T12:31:43.684Z,32.21
2022-07-29T12:32:41.163Z,32.31
2022-07-29T12:33:41.114Z,32.37
2022-07-29T12:34:41.068Z,32.58
2022-07-29T12:35:41.030Z,32.70
2022-07-29T12:36:41.004Z,32.73
2022-07-29T12:37:42.647Z,32.41
2022-07-29T12:38:40.906Z,32.43
2022-07-29T12:39:40.871Z,32.38
2022-07-29T12:40:40.831Z,32.51
2022-07-29T12:41:40.792Z,32.55
2022-07-29T12:42:40.764Z,32.08
2022-07-29T12:43:40.772Z,32.07
2022-07-29T12:44:40.672Z,32.23
2022-07-29T12:45:41.337Z,32.27
2022-07-29T12:46:40.665Z,32.48
2022-07-29T12:47:40.552Z,32.58
2022-07-29T12:48:40.607Z,32.70
2022-07-29T12:49:40.480Z,32.78
2022-07-29T12:50:40.447Z,32.70
2022-07-29T12:51:40.423Z,32.67
2022-07-29T12:52:40.357Z,32.60
2022-07-29T12:53:40.319Z,32.46